sensor_id;sensor_type;location;lat;lon;timestamp;pressure;altitude;pressure_sealevel;temperature;humidity
24558;BME280;12726;49.148;8.582;2023-04-05T00:01:08;101061.91;;;1.29;67.01
24558;BME280;12726;49.148;8.582;2023-04-05T00:03:55;101062.88;;;1.28;67.22
24558;BME280;12726;49.148;8.582;2023-04-05T00:06:41;101053.34;;;1.16;67.90
24558;BME280;12726;49.148;8.582;2023-04-05T00:09:26;101055.84;;;1.08;68.19
24558;BME280;12726;49.148;8.582;2023-04-05T00:12:12;101052.22;;;0.99;68.66
24558;BME280;12726;49.148;8.582;2023-04-05T00:14:58;101054.16;;;0.97;68.91
24558;BME280;12726;49.148;8.582;2023-04-05T00:17:44;101050.06;;;0.93;69.61
24558;BME280;12726;49.148;8.582;2023-04-05T00:20:30;101038.91;;;0.90;69.54
24558;BME280;12726;49.148;8.582;2023-04-05T00:23:16;101047.72;;;0.90;69.44
24558;BME280;12726;49.148;8.582;2023-04-05T00:26:01;101036.41;;;0.88;69.37
24558;BME280;12726;49.148;8.582;2023-04-05T00:28:47;101042.94;;;0.84;69.24
24558;BME280;12726;49.148;8.582;2023-04-05T00:31:34;101034.28;;;0.82;69.36
24558;BME280;12726;49.148;8.582;2023-04-05T00:34:19;101034.53;;;0.79;69.33
24558;BME280;12726;49.148;8.582;2023-04-05T00:37:05;101036.63;;;0.75;69.44
24558;BME280;12726;49.148;8.582;2023-04-05T00:39:50;101045.00;;;0.71;69.93
24558;BME280;12726;49.148;8.582;2023-04-05T00:42:36;101038.28;;;0.67;70.04
24558;BME280;12726;49.148;8.582;2023-04-05T00:45:21;101038.69;;;0.62;70.16
24558;BME280;12726;49.148;8.582;2023-04-05T00:48:08;101034.75;;;0.57;70.62
24558;BME280;12726;49.148;8.582;2023-04-05T00:50:56;101033.47;;;0.51;70.97
24558;BME280;12726;49.148;8.582;2023-04-05T00:53:41;101028.44;;;0.48;71.09
24558;BME280;12726;49.148;8.582;2023-04-05T00:56:28;101021.59;;;0.46;71.32
24558;BME280;12726;49.148;8.582;2023-04-05T00:59:14;101019.78;;;0.46;71.33
24558;BME280;12726;49.148;8.582;2023-04-05T01:02:01;101019.34;;;0.41;71.30
24558;BME280;12726;49.148;8.582;2023-04-05T01:04:54;101019.22;;;0.43;71.46
24558;BME280;12726;49.148;8.582;2023-04-05T01:07:49;101013.22;;;0.41;71.43
24558;BME280;12726;49.148;8.582;2023-04-05T01:10:43;101014.41;;;0.36;71.51
24558;BME280;12726;49.148;8.582;2023-04-05T01:13:29;101016.50;;;0.33;71.68
24558;BME280;12726;49.148;8.582;2023-04-05T01:16:14;101010.44;;;0.42;71.40
24558;BME280;12726;49.148;8.582;2023-04-05T01:18:59;101004.41;;;0.40;70.57
24558;BME280;12726;49.148;8.582;2023-04-05T01:25:21;101009.59;;;0.42;70.30
24558;BME280;12726;49.148;8.582;2023-04-05T01:28:34;100992.84;;;0.41;70.97
24558;BME280;12726;49.148;8.582;2023-04-05T01:31:31;100987.25;;;0.34;71.13
24558;BME280;12726;49.148;8.582;2023-04-05T01:34:25;100991.72;;;0.34;71.03
24558;BME280;12726;49.148;8.582;2023-04-05T01:37:14;100994.06;;;0.27;71.43
24558;BME280;12726;49.148;8.582;2023-04-05T01:40:02;100988.88;;;0.26;71.76
24558;BME280;12726;49.148;8.582;2023-04-05T01:42:49;100979.66;;;0.20;72.12
24558;BME280;12726;49.148;8.582;2023-04-05T01:45:34;100981.59;;;0.18;72.09
24558;BME280;12726;49.148;8.582;2023-04-05T01:48:21;100973.34;;;0.12;72.35
24558;BME280;12726;49.148;8.582;2023-04-05T01:51:06;100983.22;;;0.10;72.40
24558;BME280;12726;49.148;8.582;2023-04-05T01:53:51;100983.03;;;0.02;72.85
24558;BME280;12726;49.148;8.582;2023-04-05T01:56:36;100976.88;;;0.01;73.04
24558;BME280;12726;49.148;8.582;2023-04-05T01:59:22;100977.28;;;-0.04;73.75
24558;BME280;12726;49.148;8.582;2023-04-05T02:02:07;100980.06;;;-0.05;73.97
24558;BME280;12726;49.148;8.582;2023-04-05T02:04:54;100972.13;;;-0.05;73.97
24558;BME280;12726;49.148;8.582;2023-04-05T02:07:39;100970.44;;;-0.06;73.97
24558;BME280;12726;49.148;8.582;2023-04-05T02:10:24;100965.16;;;-0.06;74.05
24558;BME280;12726;49.148;8.582;2023-04-05T02:13:10;100961.66;;;-0.07;74.08
24558;BME280;12726;49.148;8.582;2023-04-05T02:15:56;100971.41;;;-0.07;74.06
24558;BME280;12726;49.148;8.582;2023-04-05T02:18:41;100963.63;;;-0.09;73.97
24558;BME280;12726;49.148;8.582;2023-04-05T02:21:34;100965.31;;;-0.08;73.87
24558;BME280;12726;49.148;8.582;2023-04-05T02:24:20;100959.16;;;-0.08;74.05
24558;BME280;12726;49.148;8.582;2023-04-05T02:27:06;100962.78;;;-0.09;74.17
24558;BME280;12726;49.148;8.582;2023-04-05T02:29:51;100963.63;;;-0.09;74.08
24558;BME280;12726;49.148;8.582;2023-04-05T02:32:38;100955.69;;;-0.09;74.04
24558;BME280;12726;49.148;8.582;2023-04-05T02:35:25;100962.19;;;-0.13;74.08
24558;BME280;12726;49.148;8.582;2023-04-05T02:38:12;100961.50;;;-0.15;74.13
24558;BME280;12726;49.148;8.582;2023-04-05T02:40:57;100963.56;;;-0.18;74.47
24558;BME280;12726;49.148;8.582;2023-04-05T02:43:43;100960.78;;;-0.17;74.44
24558;BME280;12726;49.148;8.582;2023-04-05T02:46:29;100963.44;;;-0.17;74.56
24558;BME280;12726;49.148;8.582;2023-04-05T02:49:14;100962.72;;;-0.19;74.57
24558;BME280;12726;49.148;8.582;2023-04-05T02:52:00;100966.31;;;-0.20;74.68
24558;BME280;12726;49.148;8.582;2023-04-05T02:54:46;100955.84;;;-0.21;74.57
24558;BME280;12726;49.148;8.582;2023-04-05T02:57:33;100960.34;;;-0.22;74.42
24558;BME280;12726;49.148;8.582;2023-04-05T03:00:19;100967.69;;;-0.25;74.80
24558;BME280;12726;49.148;8.582;2023-04-05T03:03:05;100967.13;;;-0.29;74.67
24558;BME280;12726;49.148;8.582;2023-04-05T03:05:57;100963.03;;;-0.33;74.55
24558;BME280;12726;49.148;8.582;2023-04-05T03:08:43;100965.81;;;-0.34;74.81
24558;BME280;12726;49.148;8.582;2023-04-05T03:11:30;100962.47;;;-0.36;74.86
24558;BME280;12726;49.148;8.582;2023-04-05T03:14:15;100965.75;;;-0.44;75.09
24558;BME280;12726;49.148;8.582;2023-04-05T03:17:01;100965.16;;;-0.48;75.43
24558;BME280;12726;49.148;8.582;2023-04-05T03:19:46;100966.28;;;-0.50;75.96
24558;BME280;12726;49.148;8.582;2023-04-05T03:22:31;100962.31;;;-0.56;76.48
24558;BME280;12726;49.148;8.582;2023-04-05T03:25:17;100952.97;;;-0.60;76.53
24558;BME280;12726;49.148;8.582;2023-04-05T03:28:05;100953.19;;;-0.63;76.81
24558;BME280;12726;49.148;8.582;2023-04-05T03:30:51;100956.25;;;-0.67;76.97
24558;BME280;12726;49.148;8.582;2023-04-05T03:33:36;100959.97;;;-0.70;76.89
24558;BME280;12726;49.148;8.582;2023-04-05T03:36:22;100956.88;;;-0.75;77.06
24558;BME280;12726;49.148;8.582;2023-04-05T03:39:08;100960.13;;;-0.83;77.77
24558;BME280;12726;49.148;8.582;2023-04-05T03:41:53;100957.03;;;-0.88;77.83
24558;BME280;12726;49.148;8.582;2023-04-05T03:44:40;100961.88;;;-0.93;78.50
24558;BME280;12726;49.148;8.582;2023-04-05T03:47:26;100956.81;;;-0.96;78.94
24558;BME280;12726;49.148;8.582;2023-04-05T03:50:12;100957.34;;;-1.02;79.44
24558;BME280;12726;49.148;8.582;2023-04-05T03:52:57;100953.25;;;-1.06;79.24
24558;BME280;12726;49.148;8.582;2023-04-05T03:55:43;100948.78;;;-1.05;79.73
24558;BME280;12726;49.148;8.582;2023-04-05T03:58:32;100955.88;;;-1.06;80.13
24558;BME280;12726;49.148;8.582;2023-04-05T04:01:18;100953.25;;;-1.06;80.43
24558;BME280;12726;49.148;8.582;2023-04-05T04:04:04;100953.00;;;-1.03;80.30
24558;BME280;12726;49.148;8.582;2023-04-05T04:06:49;100960.31;;;-1.06;80.63
24558;BME280;12726;49.148;8.582;2023-04-05T04:09:35;100938.63;;;-1.10;80.44
24558;BME280;12726;49.148;8.582;2023-04-05T04:12:20;100950.16;;;-1.11;80.64
24558;BME280;12726;49.148;8.582;2023-04-05T04:15:06;100961.66;;;-1.12;80.50
24558;BME280;12726;49.148;8.582;2023-04-05T04:17:53;100954.84;;;-1.14;81.14
24558;BME280;12726;49.148;8.582;2023-04-05T04:20:38;100958.69;;;-1.19;81.12
24558;BME280;12726;49.148;8.582;2023-04-05T04:23:23;100955.69;;;-1.25;81.34
24558;BME280;12726;49.148;8.582;2023-04-05T04:26:10;100953.22;;;-1.38;82.09
24558;BME280;12726;49.148;8.582;2023-04-05T04:28:57;100964.63;;;-1.37;82.82
24558;BME280;12726;49.148;8.582;2023-04-05T04:31:44;100958.88;;;-1.42;82.61
24558;BME280;12726;49.148;8.582;2023-04-05T04:34:34;100964.59;;;-1.48;83.09
24558;BME280;12726;49.148;8.582;2023-04-05T04:37:19;100957.91;;;-1.52;82.81
24558;BME280;12726;49.148;8.582;2023-04-05T04:40:06;100945.91;;;-1.56;83.56
24558;BME280;12726;49.148;8.582;2023-04-05T04:42:54;100955.88;;;-1.60;83.72
24558;BME280;12726;49.148;8.582;2023-04-05T04:45:41;100958.88;;;-1.65;83.81
24558;BME280;12726;49.148;8.582;2023-04-05T04:48:29;100963.22;;;-1.64;83.49
24558;BME280;12726;49.148;8.582;2023-04-05T04:51:17;100958.03;;;-1.65;83.64
24558;BME280;12726;49.148;8.582;2023-04-05T04:54:02;100965.34;;;-1.69;83.92
24558;BME280;12726;49.148;8.582;2023-04-05T04:56:48;100961.88;;;-1.69;84.09
24558;BME280;12726;49.148;8.582;2023-04-05T04:59:33;100966.44;;;-1.71;84.14
24558;BME280;12726;49.148;8.582;2023-04-05T05:02:22;100968.94;;;-1.70;84.28
24558;BME280;12726;49.148;8.582;2023-04-05T05:05:08;100971.47;;;-1.68;83.94
24558;BME280;12726;49.148;8.582;2023-04-05T05:07:55;100965.00;;;-1.64;84.11
24558;BME280;12726;49.148;8.582;2023-04-05T05:10:41;100963.91;;;-1.62;83.98
24558;BME280;12726;49.148;8.582;2023-04-05T05:13:26;100974.25;;;-1.59;83.87
24558;BME280;12726;49.148;8.582;2023-04-05T05:16:11;100976.88;;;-1.59;83.65
24558;BME280;12726;49.148;8.582;2023-04-05T05:18:57;100974.81;;;-1.55;84.02
24558;BME280;12726;49.148;8.582;2023-04-05T05:21:42;100972.06;;;-1.53;83.53
24558;BME280;12726;49.148;8.582;2023-04-05T05:24:29;100979.16;;;-1.54;83.79
24558;BME280;12726;49.148;8.582;2023-04-05T05:27:14;100972.06;;;-1.53;83.78
24558;BME280;12726;49.148;8.582;2023-04-05T05:30:00;100976.28;;;-1.51;84.09
24558;BME280;12726;49.148;8.582;2023-04-05T05:32:45;100976.16;;;-1.49;84.59
24558;BME280;12726;49.148;8.582;2023-04-05T05:35:30;100976.75;;;-1.46;84.73
24558;BME280;12726;49.148;8.582;2023-04-05T05:38:16;100986.94;;;-1.41;84.44
24558;BME280;12726;49.148;8.582;2023-04-05T05:41:03;100988.13;;;-1.34;84.85
24558;BME280;12726;49.148;8.582;2023-04-05T05:43:48;100993.53;;;-1.25;84.46
24558;BME280;12726;49.148;8.582;2023-04-05T05:46:34;100995.44;;;-1.15;84.12
24558;BME280;12726;49.148;8.582;2023-04-05T05:49:19;100991.22;;;-1.07;83.79
24558;BME280;12726;49.148;8.582;2023-04-05T05:52:05;100993.94;;;-0.97;83.54
24558;BME280;12726;49.148;8.582;2023-04-05T05:54:50;100987.91;;;-0.88;83.13
24558;BME280;12726;49.148;8.582;2023-04-05T05:57:37;100990.50;;;-0.77;82.28
24558;BME280;12726;49.148;8.582;2023-04-05T06:00:22;100992.50;;;-0.58;81.27
24558;BME280;12726;49.148;8.582;2023-04-05T06:03:07;100980.50;;;-0.42;80.10
24558;BME280;12726;49.148;8.582;2023-04-05T06:05:53;100992.34;;;-0.25;80.02
24558;BME280;12726;49.148;8.582;2023-04-05T06:08:39;100987.63;;;-0.01;79.89
24558;BME280;12726;49.148;8.582;2023-04-05T06:11:24;100994.72;;;0.20;78.24
24558;BME280;12726;49.148;8.582;2023-04-05T06:14:11;100994.13;;;0.47;78.10
24558;BME280;12726;49.148;8.582;2023-04-05T06:16:56;100997.59;;;0.77;77.01
24558;BME280;12726;49.148;8.582;2023-04-05T06:19:42;100996.66;;;1.07;75.72
24558;BME280;12726;49.148;8.582;2023-04-05T06:22:27;100991.41;;;1.27;73.96
24558;BME280;12726;49.148;8.582;2023-04-05T06:25:12;100991.84;;;1.61;73.27
24558;BME280;12726;49.148;8.582;2023-04-05T06:27:57;100988.44;;;1.97;71.05
24558;BME280;12726;49.148;8.582;2023-04-05T06:30:44;100982.03;;;2.36;67.81
24558;BME280;12726;49.148;8.582;2023-04-05T06:33:29;100984.44;;;2.57;65.37
24558;BME280;12726;49.148;8.582;2023-04-05T06:36:15;100981.59;;;2.96;65.36
24558;BME280;12726;49.148;8.582;2023-04-05T06:39:00;100988.97;;;3.47;62.89
24558;BME280;12726;49.148;8.582;2023-04-05T06:41:45;100987.56;;;3.61;61.73
24558;BME280;12726;49.148;8.582;2023-04-05T06:44:31;100981.06;;;4.24;60.79
24558;BME280;12726;49.148;8.582;2023-04-05T06:47:17;100988.31;;;4.74;57.53
24558;BME280;12726;49.148;8.582;2023-04-05T06:50:03;100989.97;;;5.25;54.55
24558;BME280;12726;49.148;8.582;2023-04-05T06:52:49;100980.00;;;5.68;54.14
24558;BME280;12726;49.148;8.582;2023-04-05T06:55:34;100979.63;;;6.19;53.23
24558;BME280;12726;49.148;8.582;2023-04-05T06:58:20;100982.72;;;6.55;50.80
24558;BME280;12726;49.148;8.582;2023-04-05T07:01:06;100974.69;;;7.02;49.33
24558;BME280;12726;49.148;8.582;2023-04-05T07:03:53;100981.00;;;7.32;47.98
24558;BME280;12726;49.148;8.582;2023-04-05T07:06:38;100970.22;;;7.86;46.77
24558;BME280;12726;49.148;8.582;2023-04-05T07:09:23;100975.09;;;8.20;46.16
24558;BME280;12726;49.148;8.582;2023-04-05T07:12:12;100970.78;;;8.48;43.23
24558;BME280;12726;49.148;8.582;2023-04-05T07:14:58;100971.38;;;7.69;44.29
24558;BME280;12726;49.148;8.582;2023-04-05T07:17:43;100969.81;;;7.74;44.42
24558;BME280;12726;49.148;8.582;2023-04-05T07:20:30;100963.59;;;8.11;43.69
24558;BME280;12726;49.148;8.582;2023-04-05T07:23:15;100964.75;;;8.17;44.52
24558;BME280;12726;49.148;8.582;2023-04-05T07:26:01;100968.59;;;8.67;44.08
24558;BME280;12726;49.148;8.582;2023-04-05T07:28:48;100963.72;;;8.91;42.38
24558;BME280;12726;49.148;8.582;2023-04-05T07:31:34;100970.66;;;9.00;42.18
24558;BME280;12726;49.148;8.582;2023-04-05T07:34:19;100977.47;;;9.39;41.94
24558;BME280;12726;49.148;8.582;2023-04-05T07:37:06;100973.06;;;8.95;41.27
24558;BME280;12726;49.148;8.582;2023-04-05T07:39:51;100965.59;;;9.27;42.67
24558;BME280;12726;49.148;8.582;2023-04-05T07:42:37;100972.00;;;9.68;41.19
24558;BME280;12726;49.148;8.582;2023-04-05T07:45:23;100978.00;;;9.92;41.09
24558;BME280;12726;49.148;8.582;2023-04-05T07:48:10;100968.22;;;9.41;41.15
24558;BME280;12726;49.148;8.582;2023-04-05T07:50:56;100977.47;;;10.03;41.72
24558;BME280;12726;49.148;8.582;2023-04-05T07:53:48;100973.31;;;10.22;39.73
24558;BME280;12726;49.148;8.582;2023-04-05T07:56:33;100966.03;;;10.50;39.95
24558;BME280;12726;49.148;8.582;2023-04-05T07:59:18;100971.69;;;11.09;38.65
24558;BME280;12726;49.148;8.582;2023-04-05T08:02:03;100971.19;;;11.73;37.54
24558;BME280;12726;49.148;8.582;2023-04-05T08:04:49;100975.56;;;10.87;38.64
24558;BME280;12726;49.148;8.582;2023-04-05T08:07:34;100975.22;;;11.10;38.70
24558;BME280;12726;49.148;8.582;2023-04-05T08:10:21;100975.44;;;11.15;38.21
24558;BME280;12726;49.148;8.582;2023-04-05T08:13:06;100979.34;;;11.99;38.23
24558;BME280;12726;49.148;8.582;2023-04-05T08:15:54;100977.66;;;12.25;36.23
24558;BME280;12726;49.148;8.582;2023-04-05T08:18:39;100975.94;;;12.63;35.34
24558;BME280;12726;49.148;8.582;2023-04-05T08:21:25;100980.44;;;12.82;34.02
24558;BME280;12726;49.148;8.582;2023-04-05T08:24:10;100972.66;;;12.41;37.08
24558;BME280;12726;49.148;8.582;2023-04-05T08:26:57;100968.03;;;12.68;35.62
24558;BME280;12726;49.148;8.582;2023-04-05T08:29:42;100956.63;;;12.53;34.43
24558;BME280;12726;49.148;8.582;2023-04-05T08:32:27;100963.13;;;12.32;37.38
24558;BME280;12726;49.148;8.582;2023-04-05T08:35:13;100966.38;;;13.25;34.81
24558;BME280;12726;49.148;8.582;2023-04-05T08:37:58;100969.13;;;13.81;34.00
24558;BME280;12726;49.148;8.582;2023-04-05T08:40:45;100965.94;;;12.70;33.92
24558;BME280;12726;49.148;8.582;2023-04-05T08:43:39;100967.25;;;12.48;35.77
24558;BME280;12726;49.148;8.582;2023-04-05T08:46:29;100970.72;;;13.26;34.89
24558;BME280;12726;49.148;8.582;2023-04-05T08:49:15;100972.34;;;13.96;33.57
24558;BME280;12726;49.148;8.582;2023-04-05T08:52:01;100975.50;;;14.61;32.29
24558;BME280;12726;49.148;8.582;2023-04-05T08:54:47;100952.91;;;14.49;32.47
24558;BME280;12726;49.148;8.582;2023-04-05T08:57:36;100959.22;;;14.43;33.62
24558;BME280;12726;49.148;8.582;2023-04-05T09:00:22;100973.38;;;14.81;32.29
24558;BME280;12726;49.148;8.582;2023-04-05T09:03:13;100956.44;;;14.49;32.22
24558;BME280;12726;49.148;8.582;2023-04-05T09:05:59;100958.94;;;14.69;29.02
24558;BME280;12726;49.148;8.582;2023-04-05T09:08:47;100957.69;;;15.20;29.77
24558;BME280;12726;49.148;8.582;2023-04-05T09:11:33;100955.72;;;15.57;29.33
24558;BME280;12726;49.148;8.582;2023-04-05T09:14:19;100953.22;;;15.25;29.33
24558;BME280;12726;49.148;8.582;2023-04-05T09:17:06;100950.44;;;15.44;29.18
24558;BME280;12726;49.148;8.582;2023-04-05T09:19:52;100953.75;;;15.34;30.05
24558;BME280;12726;49.148;8.582;2023-04-05T09:22:46;100950.31;;;15.69;29.56
24558;BME280;12726;49.148;8.582;2023-04-05T09:25:36;100950.34;;;15.80;27.76
24558;BME280;12726;49.148;8.582;2023-04-05T09:28:22;100952.81;;;15.70;27.64
24558;BME280;12726;49.148;8.582;2023-04-05T09:31:08;100950.00;;;15.77;26.85
24558;BME280;12726;49.148;8.582;2023-04-05T09:33:56;100948.53;;;15.62;28.40
24558;BME280;12726;49.148;8.582;2023-04-05T09:36:43;100950.00;;;15.88;27.76
24558;BME280;12726;49.148;8.582;2023-04-05T09:39:29;100943.34;;;15.61;26.94
24558;BME280;12726;49.148;8.582;2023-04-05T09:42:19;100950.00;;;16.00;27.35
24558;BME280;12726;49.148;8.582;2023-04-05T09:45:09;100939.19;;;15.58;27.83
24558;BME280;12726;49.148;8.582;2023-04-05T09:47:56;100933.50;;;15.18;29.96
24558;BME280;12726;49.148;8.582;2023-04-05T09:50:42;100941.03;;;15.46;29.62
24558;BME280;12726;49.148;8.582;2023-04-05T09:53:28;100930.53;;;15.50;29.03
24558;BME280;12726;49.148;8.582;2023-04-05T09:56:13;100936.63;;;15.04;29.03
24558;BME280;12726;49.148;8.582;2023-04-05T09:58:59;100933.78;;;15.58;30.98
24558;BME280;12726;49.148;8.582;2023-04-05T10:01:50;100930.22;;;15.58;28.66
24558;BME280;12726;49.148;8.582;2023-04-05T10:04:39;100928.84;;;15.79;27.51
24558;BME280;12726;49.148;8.582;2023-04-05T10:07:26;100929.94;;;16.01;27.65
24558;BME280;12726;49.148;8.582;2023-04-05T10:10:11;100924.03;;;16.27;27.26
24558;BME280;12726;49.148;8.582;2023-04-05T10:12:59;100922.50;;;16.31;26.27
24558;BME280;12726;49.148;8.582;2023-04-05T10:15:46;100921.19;;;16.45;25.11
24558;BME280;12726;49.148;8.582;2023-04-05T10:18:40;100921.19;;;16.45;25.45
24558;BME280;12726;49.148;8.582;2023-04-05T10:21:33;100919.25;;;15.53;26.84
24558;BME280;12726;49.148;8.582;2023-04-05T10:24:32;100908.56;;;15.40;25.73
24558;BME280;12726;49.148;8.582;2023-04-05T10:27:23;100910.72;;;14.89;28.39
24558;BME280;12726;49.148;8.582;2023-04-05T10:30:12;100910.00;;;14.82;28.15
24558;BME280;12726;49.148;8.582;2023-04-05T10:33:09;100903.69;;;15.00;26.28
24558;BME280;12726;49.148;8.582;2023-04-05T10:36:06;100908.00;;;14.17;28.53
24558;BME280;12726;49.148;8.582;2023-04-05T10:39:00;100917.31;;;14.45;29.34
24558;BME280;12726;49.148;8.582;2023-04-05T10:41:52;100903.84;;;15.05;27.29
24558;BME280;12726;49.148;8.582;2023-04-05T10:44:38;100908.25;;;15.18;29.80
24558;BME280;12726;49.148;8.582;2023-04-05T10:47:27;100900.88;;;15.37;27.03
24558;BME280;12726;49.148;8.582;2023-04-05T10:50:18;100900.66;;;15.38;27.82
24558;BME280;12726;49.148;8.582;2023-04-05T10:53:05;100897.19;;;14.71;29.84
24558;BME280;12726;49.148;8.582;2023-04-05T10:55:52;100893.09;;;14.99;28.02
24558;BME280;12726;49.148;8.582;2023-04-05T10:58:41;100889.69;;;15.03;28.57
24558;BME280;12726;49.148;8.582;2023-04-05T11:01:28;100894.78;;;14.81;28.32
24558;BME280;12726;49.148;8.582;2023-04-05T11:04:14;100885.41;;;14.96;28.85
24558;BME280;12726;49.148;8.582;2023-04-05T11:07:11;100891.84;;;14.65;28.57
24558;BME280;12726;49.148;8.582;2023-04-05T11:09:59;100878.78;;;14.00;28.43
24558;BME280;12726;49.148;8.582;2023-04-05T11:13:09;100884.13;;;13.64;29.57
24558;BME280;12726;49.148;8.582;2023-04-05T11:16:08;100880.28;;;13.71;32.46
24558;BME280;12726;49.148;8.582;2023-04-05T11:18:53;100872.63;;;13.68;30.68
24558;BME280;12726;49.148;8.582;2023-04-05T11:21:38;100868.66;;;13.46;30.17
24558;BME280;12726;49.148;8.582;2023-04-05T11:24:48;100876.78;;;12.12;31.04
24558;BME280;12726;49.148;8.582;2023-04-05T11:27:39;100868.72;;;12.06;32.28
24558;BME280;12726;49.148;8.582;2023-04-05T11:30:47;100867.78;;;12.32;32.48
24558;BME280;12726;49.148;8.582;2023-04-05T11:33:53;100871.00;;;11.89;33.02
24558;BME280;12726;49.148;8.582;2023-04-05T11:36:43;100864.72;;;12.28;32.52
24558;BME280;12726;49.148;8.582;2023-04-05T11:39:31;100863.34;;;12.57;32.61
24558;BME280;12726;49.148;8.582;2023-04-05T11:42:16;100858.72;;;12.71;31.20
24558;BME280;12726;49.148;8.582;2023-04-05T11:45:02;100858.69;;;13.09;31.04
24558;BME280;12726;49.148;8.582;2023-04-05T11:47:47;100847.03;;;13.46;28.93
24558;BME280;12726;49.148;8.582;2023-04-05T11:50:36;100846.63;;;13.92;28.45
24558;BME280;12726;49.148;8.582;2023-04-05T11:53:22;100851.72;;;14.37;28.24
24558;BME280;12726;49.148;8.582;2023-04-05T11:56:09;100838.03;;;13.77;28.42
24558;BME280;12726;49.148;8.582;2023-04-05T11:58:57;100835.00;;;13.42;30.47
24558;BME280;12726;49.148;8.582;2023-04-05T12:01:43;100837.81;;;13.54;30.67
24558;BME280;12726;49.148;8.582;2023-04-05T12:04:28;100837.75;;;13.85;30.08
24558;BME280;12726;49.148;8.582;2023-04-05T12:07:16;100840.59;;;14.08;29.24
24558;BME280;12726;49.148;8.582;2023-04-05T12:10:05;100835.13;;;14.33;28.07
24558;BME280;12726;49.148;8.582;2023-04-05T12:12:51;100833.47;;;14.50;27.38
24558;BME280;12726;49.148;8.582;2023-04-05T12:15:38;100839.56;;;14.28;28.13
24558;BME280;12726;49.148;8.582;2023-04-05T12:18:24;100834.41;;;14.01;27.89
24558;BME280;12726;49.148;8.582;2023-04-05T12:21:10;100818.59;;;14.41;28.19
24558;BME280;12726;49.148;8.582;2023-04-05T12:23:57;100818.22;;;14.38;26.92
24558;BME280;12726;49.148;8.582;2023-04-05T12:26:42;100814.47;;;14.69;29.26
24558;BME280;12726;49.148;8.582;2023-04-05T12:29:28;100805.09;;;14.35;28.71
24558;BME280;12726;49.148;8.582;2023-04-05T12:32:13;100815.69;;;13.01;30.27
24558;BME280;12726;49.148;8.582;2023-04-05T12:34:58;100812.88;;;12.51;31.64
24558;BME280;12726;49.148;8.582;2023-04-05T12:37:44;100810.09;;;12.26;30.98
24558;BME280;12726;49.148;8.582;2023-04-05T12:40:33;100811.53;;;12.29;30.27
24558;BME280;12726;49.148;8.582;2023-04-05T12:43:18;100804.22;;;12.42;30.20
24558;BME280;12726;49.148;8.582;2023-04-05T12:46:07;100805.34;;;12.15;28.61
24558;BME280;12726;49.148;8.582;2023-04-05T12:48:53;100800.06;;;12.40;29.46
24558;BME280;12726;49.148;8.582;2023-04-05T12:51:40;100795.03;;;12.50;28.83
24558;BME280;12726;49.148;8.582;2023-04-05T12:54:26;100787.19;;;12.42;28.76
24558;BME280;12726;49.148;8.582;2023-04-05T12:57:13;100788.84;;;12.43;29.83
24558;BME280;12726;49.148;8.582;2023-04-05T12:59:58;100790.03;;;12.53;29.58
24558;BME280;12726;49.148;8.582;2023-04-05T13:02:47;100792.34;;;12.81;31.96
24558;BME280;12726;49.148;8.582;2023-04-05T13:05:34;100778.34;;;13.22;30.02
24558;BME280;12726;49.148;8.582;2023-04-05T13:08:19;100773.44;;;13.38;28.86
24558;BME280;12726;49.148;8.582;2023-04-05T13:11:04;100778.34;;;13.47;28.18
24558;BME280;12726;49.148;8.582;2023-04-05T13:13:51;100770.09;;;13.42;27.76
24558;BME280;12726;49.148;8.582;2023-04-05T13:16:36;100769.59;;;13.27;27.97
24558;BME280;12726;49.148;8.582;2023-04-05T13:19:23;100766.38;;;13.37;28.55
24558;BME280;12726;49.148;8.582;2023-04-05T13:22:09;100764.75;;;13.36;27.57
24558;BME280;12726;49.148;8.582;2023-04-05T13:24:54;100762.25;;;13.34;31.00
24558;BME280;12726;49.148;8.582;2023-04-05T13:27:39;100762.31;;;12.96;30.15
24558;BME280;12726;49.148;8.582;2023-04-05T13:30:26;100766.31;;;12.87;29.01
24558;BME280;12726;49.148;8.582;2023-04-05T13:33:11;100746.88;;;13.03;29.24
24558;BME280;12726;49.148;8.582;2023-04-05T13:35:56;100747.97;;;12.95;28.40
24558;BME280;12726;49.148;8.582;2023-04-05T13:38:42;100752.91;;;12.74;29.12
24558;BME280;12726;49.148;8.582;2023-04-05T13:41:27;100749.53;;;12.85;28.60
24558;BME280;12726;49.148;8.582;2023-04-05T13:44:12;100743.25;;;12.15;29.74
24558;BME280;12726;49.148;8.582;2023-04-05T13:46:59;100734.50;;;11.75;30.47
24558;BME280;12726;49.148;8.582;2023-04-05T13:49:44;100737.59;;;11.79;31.83
24558;BME280;12726;49.148;8.582;2023-04-05T13:52:30;100726.25;;;11.50;32.39
24558;BME280;12726;49.148;8.582;2023-04-05T13:55:16;100736.44;;;11.35;30.69
24558;BME280;12726;49.148;8.582;2023-04-05T13:58:01;100725.81;;;11.47;31.58
24558;BME280;12726;49.148;8.582;2023-04-05T14:00:46;100726.84;;;11.52;30.30
24558;BME280;12726;49.148;8.582;2023-04-05T14:03:33;100718.34;;;11.49;30.46
24558;BME280;12726;49.148;8.582;2023-04-05T14:06:18;100726.50;;;11.22;30.90
24558;BME280;12726;49.148;8.582;2023-04-05T14:09:04;100722.94;;;11.09;30.58
24558;BME280;12726;49.148;8.582;2023-04-05T14:11:49;100719.88;;;10.79;31.37
24558;BME280;12726;49.148;8.582;2023-04-05T14:14:35;100719.03;;;10.98;32.61
24558;BME280;12726;49.148;8.582;2023-04-05T14:17:21;100716.13;;;10.86;31.57
24558;BME280;12726;49.148;8.582;2023-04-05T14:20:08;100713.44;;;10.80;32.22
24558;BME280;12726;49.148;8.582;2023-04-05T14:22:54;100714.47;;;10.92;30.95
24558;BME280;12726;49.148;8.582;2023-04-05T14:25:40;100705.56;;;10.98;33.26
24558;BME280;12726;49.148;8.582;2023-04-05T14:28:25;100708.25;;;10.98;31.55
24558;BME280;12726;49.148;8.582;2023-04-05T14:31:10;100704.94;;;10.83;32.04
24558;BME280;12726;49.148;8.582;2023-04-05T14:33:56;100694.34;;;10.68;31.95
24558;BME280;12726;49.148;8.582;2023-04-05T14:36:44;100690.84;;;10.68;33.08
24558;BME280;12726;49.148;8.582;2023-04-05T14:39:29;100696.03;;;10.89;32.00